Time;durP1;ratioP1;P1;durP2;ratioP2;P2;SDS_P1;SDS_P2;PMS_P1;PMS_P2;Temp;Humidity;BMP_temperature;BMP_pressure;BME280_temperature;BME280_humidity;BME280_pressure;Samples;Min_cycle;Max_cycle;Signal;HPM_P1;HPM_P2
2022/01/15 00:02:03;;;;;;;38.05;20.25;;;4.60;73.80;;;-142.21;100.00;112049.66;4994248;28;20207;-77
2022/01/15 00:04:30;;;;;;;35.33;20.90;;;4.70;73.40;;;-142.21;100.00;112049.66;4981622;28;20232;-78
2022/01/15 00:06:57;;;;;;;58.78;20.23;;;4.70;73.00;;;-142.21;100.00;112049.66;4992754;28;20287;-77
2022/01/15 00:09:24;;;;;;;38.03;19.70;;;4.60;72.40;;;-142.21;100.00;112049.66;4994485;28;20638;-76
2022/01/15 00:11:52;;;;;;;43.53;20.83;;;4.60;72.60;;;-142.21;100.00;112049.66;4991207;28;20242;-77
2022/01/15 00:14:26;;;;;;;63.05;22.45;;;4.50;72.30;;;-142.21;100.00;112049.66;4975050;28;20213;-78
2022/01/15 00:17:04;;;;;;;36.88;20.27;;;4.30;72.60;;;-142.21;100.00;112049.66;4975442;28;20200;-74
2022/01/15 00:19:41;;;;;;;52.50;21.85;;;4.10;73.40;;;-142.21;100.00;112049.66;4983352;28;20224;-77
2022/01/15 00:22:10;;;;;;;63.35;21.13;;;4.00;74.10;;;-142.21;100.00;112049.66;4985084;28;20623;-77
2022/01/15 00:24:38;;;;;;;35.35;18.45;;;4.10;75.30;;;-142.21;100.00;112049.66;4986837;28;20242;-76
2022/01/15 00:27:07;;;;;;;35.20;19.30;;;4.10;73.90;;;-142.21;100.00;112049.66;4986087;28;20208;-77
2022/01/15 00:29:35;;;;;;;35.03;19.58;;;4.10;74.30;;;-142.21;100.00;112049.66;4974331;28;20295;-77
2022/01/15 00:32:08;;;;;;;52.50;21.73;;;4.20;73.80;;;-142.21;100.00;112049.66;4993202;28;20291;-77
2022/01/15 00:34:36;;;;;;;58.90;21.77;;;4.30;74.10;;;-142.21;100.00;112049.66;4976521;28;20208;-77
2022/01/15 00:37:04;;;;;;;46.20;22.70;;;4.40;74.20;;;-142.21;100.00;112049.66;4994667;28;20295;-77
2022/01/15 00:39:31;;;;;;;50.45;21.75;;;4.30;73.50;;;-142.21;100.00;112049.66;4976103;28;20254;-76
2022/01/15 00:41:58;;;;;;;42.92;22.70;;;4.40;73.60;;;-142.21;100.00;112049.66;4984921;28;20239;-77
2022/01/15 00:44:26;;;;;;;44.25;23.83;;;4.40;72.90;;;-142.21;100.00;112049.66;4994181;28;20204;-76
2022/01/15 00:46:55;;;;;;;35.45;21.20;;;4.30;72.90;;;-142.21;100.00;112049.66;4993903;28;20203;-76
2022/01/15 00:49:24;;;;;;;55.63;23.52;;;4.30;73.50;;;-142.21;100.00;112049.66;4997201;28;20215;-76
2022/01/15 00:51:51;;;;;;;53.40;22.95;;;4.20;73.30;;;-142.21;100.00;112049.66;5017271;28;20184;-77
2022/01/15 00:54:19;;;;;;;61.90;24.83;;;4.20;73.60;;;-142.21;100.00;112049.66;5014967;28;20187;-77
2022/01/15 00:56:46;;;;;;;49.05;24.77;;;4.00;74.00;;;-142.21;100.00;112049.66;4994680;28;20255;-78
2022/01/15 00:59:14;;;;;;;48.13;22.77;;;3.90;74.00;;;-142.21;100.00;112049.66;4993592;28;20692;-77
2022/01/15 01:01:41;;;;;;;59.50;23.73;;;3.80;74.80;;;-142.21;100.00;112049.66;4993527;28;20282;-77
2022/01/15 01:04:08;;;;;;;96.97;28.02;;;3.80;74.90;;;-142.21;100.00;112049.66;4993132;28;20350;-77
2022/01/15 01:06:37;;;;;;;54.05;24.00;;;3.90;74.60;;;-142.21;100.00;112049.66;4994169;28;20251;-77
2022/01/15 01:09:04;;;;;;;46.53;23.73;;;3.80;74.70;;;-142.21;100.00;112049.66;4992932;28;20286;-76
2022/01/15 01:11:43;;;;;;;51.35;23.70;;;3.90;75.00;;;-142.21;100.00;112049.66;4993423;28;20235;-78
2022/01/15 01:22:53;;;;;;;43.22;23.38;;;3.90;75.00;;;-142.21;100.00;112049.66;4974823;28;20223;-76
2022/01/15 01:25:23;;;;;;;61.53;26.35;;;3.90;74.70;;;-142.21;100.00;112049.66;4992905;28;20204;-75
2022/01/15 01:27:54;;;;;;;38.00;23.05;;;3.90;74.80;;;-142.21;100.00;112049.66;4993684;28;20200;-77
2022/01/15 01:30:25;;;;;;;53.17;25.15;;;3.70;74.70;;;-142.21;100.00;112049.66;4992166;28;20199;-77
2022/01/15 01:32:58;;;;;;;56.42;24.80;;;3.80;74.80;;;-142.21;100.00;112049.66;4993459;28;20192;-77
2022/01/15 01:35:36;;;;;;;67.85;24.80;;;3.80;75.20;;;-142.21;100.00;112049.66;4992226;28;20653;-77
2022/01/15 01:38:17;;;;;;;41.53;22.23;;;3.80;75.00;;;-142.21;100.00;112049.66;4992928;28;20227;-77
2022/01/15 01:40:49;;;;;;;43.05;22.35;;;3.70;75.10;;;-142.21;100.00;112049.66;4973384;28;20259;-77
2022/01/15 01:43:41;;;;;;;42.47;21.65;;;3.70;75.00;;;-142.21;100.00;112049.66;4973067;28;20200;-75
2022/01/15 01:46:33;;;;;;;42.05;19.48;;;3.70;74.80;;;-142.21;100.00;112049.66;4973673;28;20721;-75
2022/01/15 01:49:02;;;;;;;64.70;21.38;;;3.80;74.80;;;-142.21;100.00;112049.66;4984985;28;20215;-77
2022/01/15 01:51:34;;;;;;;42.92;20.33;;;3.80;74.70;;;-142.21;100.00;112049.66;4992348;28;20387;-76
2022/01/15 01:54:10;;;;;;;40.97;21.25;;;3.80;74.80;;;-142.21;100.00;112049.66;4973571;28;20197;-75
2022/01/15 01:56:39;;;;;;;34.42;19.15;;;3.90;75.00;;;-142.21;100.00;112049.66;4973288;28;20189;-75
2022/01/15 01:59:08;;;;;;;41.22;19.98;;;3.90;75.00;;;-142.21;100.00;112049.66;4983700;28;20255;-75
2022/01/15 02:01:36;;;;;;;35.10;20.77;;;4.00;74.90;;;-142.21;100.00;112049.66;4992480;28;20314;-76
2022/01/15 02:04:04;;;;;;;36.67;20.25;;;4.00;74.20;;;-142.21;100.00;112049.66;4992920;28;20212;-78
2022/01/15 02:06:32;;;;;;;36.05;20.08;;;4.10;74.20;;;-142.21;100.00;112049.66;4992194;28;20207;-76
2022/01/15 02:09:00;;;;;;;33.47;19.60;;;4.10;74.00;;;-142.21;100.00;112049.66;4973641;28;20299;-77
2022/01/15 02:11:28;;;;;;;30.23;19.52;;;4.00;73.90;;;-142.21;100.00;112049.66;4975558;28;20204;-78
2022/01/15 02:13:55;;;;;;;33.72;19.88;;;4.20;73.90;;;-142.21;100.00;112049.66;4992575;28;20625;-78
2022/01/15 02:16:23;;;;;;;43.25;20.80;;;4.10;74.10;;;-142.21;100.00;112049.66;4992619;28;20235;-77
2022/01/15 02:18:54;;;;;;;39.40;18.70;;;4.20;73.70;;;-142.21;100.00;112049.66;4992825;28;20228;-74
2022/01/15 02:24:08;;;;;;;39.72;20.58;;;4.20;74.10;;;-142.21;100.00;112049.66;4984502;28;20207;-76
2022/01/15 02:26:37;;;;;;;44.38;21.83;;;4.30;73.50;;;-142.21;100.00;112049.66;4992190;28;20694;-75
2022/01/15 02:29:07;;;;;;;38.45;20.40;;;4.30;73.50;;;-142.21;100.00;112049.66;4989102;28;20288;-78
2022/01/15 02:31:35;;;;;;;42.95;21.40;;;4.30;73.30;;;-142.21;100.00;112049.66;4977968;28;20207;-77
2022/01/15 02:34:06;;;;;;;45.30;21.60;;;4.30;73.30;;;-142.21;100.00;112049.66;4992564;28;20306;-78
2022/01/15 02:36:37;;;;;;;35.25;20.38;;;4.30;73.60;;;-142.21;100.00;112049.66;4992677;28;20293;-78
2022/01/15 02:39:06;;;;;;;45.95;21.75;;;4.30;73.60;;;-142.21;100.00;112049.66;4990028;28;20873;-74
2022/01/15 02:41:36;;;;;;;38.90;21.38;;;4.40;73.30;;;-142.21;100.00;112049.66;4973882;28;20259;-74
2022/01/15 02:44:09;;;;;;;40.63;20.58;;;4.40;73.30;;;-142.21;100.00;112049.66;4978756;28;20649;-75
2022/01/15 02:48:00;;;;;;;60.65;22.27;;;4.30;73.30;;;-142.21;100.00;112049.66;4985076;28;20201;-75
2022/01/15 02:49:25;;;;;;;50.05;23.50;;;4.40;73.30;;;-142.21;100.00;112049.66;4973362;28;20212;-77
2022/01/15 02:51:54;;;;;;;38.08;21.85;;;4.40;73.10;;;-142.21;100.00;112049.66;4990378;28;20202;-77
2022/01/15 02:54:21;;;;;;;32.45;19.95;;;4.40;72.70;;;-142.21;100.00;112049.66;4992494;28;20291;-76
2022/01/15 02:56:48;;;;;;;38.15;23.08;;;4.40;73.00;;;-142.21;100.00;112049.66;4995682;28;20290;-77
2022/01/15 02:59:22;;;;;;;33.00;21.70;;;4.30;72.70;;;-142.21;100.00;112049.66;4981960;28;20286;-77
2022/01/15 03:01:50;;;;;;;34.58;21.52;;;4.30;73.00;;;-142.21;100.00;112049.66;4996030;28;20691;-77
2022/01/15 03:04:17;;;;;;;34.83;20.85;;;4.20;73.20;;;-142.21;100.00;112049.66;4980236;28;20546;-76
2022/01/15 03:06:45;;;;;;;37.72;22.80;;;4.20;73.20;;;-142.21;100.00;112049.66;4984733;28;20262;-75
2022/01/15 03:09:13;;;;;;;37.60;22.10;;;4.30;73.30;;;-142.21;100.00;112049.66;4995578;28;20228;-77
2022/01/15 03:11:42;;;;;;;54.05;23.70;;;4.30;72.60;;;-142.21;100.00;112049.66;4987953;28;20312;-76
2022/01/15 03:14:09;;;;;;;28.38;20.50;;;4.20;72.50;;;-142.21;100.00;112049.66;4995132;28;20231;-76
2022/01/15 03:16:36;;;;;;;34.05;22.23;;;4.20;72.50;;;-142.21;100.00;112049.66;4996487;28;20262;-76
2022/01/15 03:19:03;;;;;;;33.00;21.70;;;4.20;72.40;;;-142.21;100.00;112049.66;4995415;28;20283;-77
2022/01/15 03:21:31;;;;;;;33.40;21.95;;;4.20;72.60;;;-142.21;100.00;112049.66;4995035;28;20310;-76
2022/01/15 03:23:58;;;;;;;26.40;18.85;;;4.10;72.50;;;-142.21;100.00;112049.66;4995559;28;20298;-76
2022/01/15 03:26:27;;;;;;;33.65;21.33;;;4.20;72.40;;;-142.21;100.00;112049.66;4995020;28;20215;-76
2022/01/15 03:28:54;;;;;;;32.25;20.85;;;4.20;72.40;;;-142.21;100.00;112049.66;4996155;28;20239;-77
2022/01/15 03:31:21;;;;;;;34.45;21.58;;;4.10;72.20;;;-142.21;100.00;112049.66;4995526;28;20258;-77
2022/01/15 03:33:48;;;;;;;28.98;20.42;;;4.10;72.40;;;-142.21;100.00;112049.66;4994982;28;20200;-75
2022/01/15 03:36:16;;;;;;;32.35;22.40;;;4.10;72.50;;;-142.21;100.00;112049.66;4995509;28;20291;-75
2022/01/15 03:38:43;;;;;;;37.55;20.80;;;4.20;72.50;;;-142.21;100.00;112049.66;4994708;28;20568;-76
2022/01/15 03:41:10;;;;;;;30.15;19.60;;;4.10;72.30;;;-142.21;100.00;112049.66;4995054;28;20600;-73
2022/01/15 03:43:38;;;;;;;38.38;22.83;;;4.10;72.50;;;-142.21;100.00;112049.66;4994832;28;20287;-76
2022/01/15 03:46:06;;;;;;;32.65;21.50;;;4.10;72.30;;;-142.21;100.00;112049.66;4995549;28;20623;-75
2022/01/15 03:48:33;;;;;;;32.90;21.33;;;4.00;72.30;;;-142.21;100.00;112049.66;4994297;28;20768;-76
2022/01/15 03:51:00;;;;;;;28.10;19.10;;;4.00;72.50;;;-142.21;100.00;112049.66;4994960;28;20258;-76
2022/01/15 03:53:27;;;;;;;37.25;22.83;;;4.00;72.70;;;-142.21;100.00;112049.66;4990567;28;20236;-75
2022/01/15 03:55:55;;;;;;;30.85;21.30;;;4.00;73.50;;;-142.21;100.00;112049.66;4994644;28;20690;-77
2022/01/15 03:58:22;;;;;;;31.13;21.30;;;4.00;73.00;;;-142.21;100.00;112049.66;4979733;28;20200;-77
2022/01/15 04:00:51;;;;;;;29.73;20.27;;;4.00;73.10;;;-142.21;100.00;112049.66;4994697;28;20684;-76
2022/01/15 04:03:21;;;;;;;33.80;22.65;;;4.00;73.00;;;-142.21;100.00;112049.66;4994444;28;20208;-76
2022/01/15 04:05:48;;;;;;;30.25;20.80;;;4.00;73.00;;;-142.21;100.00;112049.66;4994561;28;20202;-75
2022/01/15 04:08:15;;;;;;;25.02;18.90;;;3.90;72.70;;;-142.21;100.00;112049.66;4995037;28;20294;-76
2022/01/15 04:10:43;;;;;;;31.98;22.13;;;4.00;72.90;;;-142.21;100.00;112049.66;4994749;28;20204;-75
2022/01/15 04:13:15;;;;;;;28.98;21.00;;;4.00;72.60;;;-142.21;100.00;112049.66;4994080;28;20234;-76
2022/01/15 04:15:42;;;;;;;27.02;19.83;;;4.00;72.20;;;-142.21;100.00;112049.66;4994864;28;20645;-76
2022/01/15 04:18:11;;;;;;;33.30;21.52;;;4.00;72.20;;;-142.21;100.00;112049.66;4993322;28;20296;-76
2022/01/15 04:20:38;;;;;;;29.33;19.38;;;4.00;72.10;;;-142.21;100.00;112049.66;4974024;28;20645;-76
2022/01/15 04:23:06;;;;;;;29.55;21.65;;;3.90;72.50;;;-142.21;100.00;112049.66;4981225;28;20242;-76
2022/01/15 04:25:36;;;;;;;35.35;21.92;;;4.00;72.40;;;-142.21;100.00;112049.66;4994558;28;20282;-76
2022/01/15 04:28:08;;;;;;;28.73;20.88;;;4.00;72.10;;;-142.21;100.00;112049.66;4997379;28;20196;-76
2022/01/15 04:30:40;;;;;;;30.30;20.95;;;4.10;72.50;;;-142.21;100.00;112049.66;4998269;28;20193;-77
2022/01/15 04:33:10;;;;;;;29.40;20.60;;;4.00;71.90;;;-142.21;100.00;112049.66;4977496;28;20208;-76
2022/01/15 04:35:38;;;;;;;30.42;20.35;;;4.10;72.10;;;-142.21;100.00;112049.66;4994199;28;20239;-77
2022/01/15 04:38:10;;;;;;;28.85;20.42;;;4.00;71.90;;;-142.21;100.00;112049.66;4994325;28;20567;-77
2022/01/15 04:40:37;;;;;;;29.75;21.52;;;4.10;72.00;;;-142.21;100.00;112049.66;4994249;28;20216;-77
2022/01/15 04:43:04;;;;;;;28.33;20.15;;;4.10;72.10;;;-142.21;100.00;112049.66;4986797;28;20256;-77
2022/01/15 04:45:31;;;;;;;34.10;21.70;;;4.10;71.80;;;-142.21;100.00;112049.66;4974120;28;20204;-76
2022/01/15 04:47:59;;;;;;;29.85;19.35;;;4.00;71.70;;;-142.21;100.00;112049.66;4975202;28;20240;-75
2022/01/15 04:50:26;;;;;;;27.77;20.05;;;4.00;71.60;;;-142.21;100.00;112049.66;4990021;28;20207;-75
2022/01/15 04:52:55;;;;;;;30.08;19.88;;;4.10;71.70;;;-142.21;100.00;112049.66;4993473;28;20294;-76
2022/01/15 04:55:22;;;;;;;27.95;19.85;;;4.10;71.80;;;-142.21;100.00;112049.66;4994129;28;20204;-75
2022/01/15 04:57:49;;;;;;;32.38;20.75;;;4.10;71.70;;;-142.21;100.00;112049.66;4993594;28;20216;-75
2022/01/15 05:00:23;;;;;;;29.20;19.80;;;4.10;71.50;;;-142.21;100.00;112049.66;4993946;28;20196;-75
2022/01/15 05:02:50;;;;;;;29.85;19.75;;;4.10;72.70;;;-142.21;100.00;112049.66;4993313;28;20298;-74
2022/01/15 05:05:17;;;;;;;29.65;20.27;;;4.10;71.50;;;-142.21;100.00;112049.66;4985404;28;20287;-75
2022/01/15 05:07:45;;;;;;;30.48;20.20;;;4.00;71.60;;;-142.21;100.00;112049.66;4973891;28;20626;-78
2022/01/15 05:10:17;;;;;;;27.80;20.45;;;4.00;71.40;;;-142.21;100.00;112049.66;4983943;28;20203;-76
2022/01/15 05:12:46;;;;;;;33.85;21.23;;;4.00;71.70;;;-142.21;100.00;112049.66;4992644;28;20246;-76
2022/01/15 05:15:15;;;;;;;28.48;19.50;;;3.90;71.60;;;-142.21;100.00;112049.66;4993628;28;20212;-76
2022/01/15 05:17:44;;;;;;;26.92;18.88;;;3.90;72.00;;;-142.21;100.00;112049.66;4993227;28;20227;-76
2022/01/15 05:20:16;;;;;;;29.63;20.25;;;3.90;71.90;;;-142.21;100.00;112049.66;4992908;28;20795;-75
2022/01/15 05:22:44;;;;;;;34.85;21.15;;;3.90;72.10;;;-142.21;100.00;112049.66;4993143;28;20295;-75
2022/01/15 05:25:14;;;;;;;29.90;21.52;;;3.90;71.60;;;-142.21;100.00;112049.66;4984095;28;20236;-75
2022/01/15 05:27:42;;;;;;;29.38;20.42;;;3.90;72.00;;;-142.21;100.00;112049.66;4991895;28;20239;-75
2022/01/15 05:30:12;;;;;;;32.30;20.40;;;3.80;71.80;;;-142.21;100.00;112049.66;4998414;28;20192;-76
2022/01/15 05:32:40;;;;;;;32.97;22.25;;;3.80;72.30;;;-142.21;100.00;112049.66;5005767;28;20223;-77
2022/01/15 05:35:09;;;;;;;29.70;20.23;;;3.90;71.90;;;-142.21;100.00;112049.66;5013330;28;20200;-78
2022/01/15 05:37:37;;;;;;;30.25;20.88;;;3.90;72.00;;;-142.21;100.00;112049.66;4993778;28;20250;-76
2022/01/15 05:40:07;;;;;;;28.85;20.75;;;3.90;72.00;;;-142.21;100.00;112049.66;4992863;28;20204;-77
2022/01/15 05:42:35;;;;;;;30.45;21.67;;;3.80;72.10;;;-142.21;100.00;112049.66;4992868;28;20306;-77
2022/01/15 05:45:03;;;;;;;34.20;21.88;;;3.70;71.90;;;-142.21;100.00;112049.66;4993093;28;20246;-74
2022/01/15 05:47:30;;;;;;;37.28;23.13;;;3.80;72.20;;;-142.21;100.00;112049.66;4975648;28;20208;-76
2022/01/15 05:49:57;;;;;;;31.13;21.23;;;3.80;72.20;;;-142.21;100.00;112049.66;4988327;28;20254;-76
2022/01/15 05:52:25;;;;;;;29.08;20.00;;;3.80;72.40;;;-142.21;100.00;112049.66;4978003;28;20279;-75
2022/01/15 05:54:52;;;;;;;31.50;21.67;;;3.90;72.40;;;-142.21;100.00;112049.66;4993155;28;20286;-76
2022/01/15 05:57:20;;;;;;;32.95;21.80;;;3.80;72.00;;;-142.21;100.00;112049.66;4992447;28;20675;-74
2022/01/15 05:59:51;;;;;;;28.52;21.17;;;3.90;73.10;;;-142.21;100.00;112049.66;4993177;28;20299;-76
2022/01/15 06:02:18;;;;;;;33.63;21.08;;;3.90;72.10;;;-142.21;100.00;112049.66;4991886;28;20208;-77
2022/01/15 06:04:46;;;;;;;28.60;19.13;;;3.90;72.30;;;-142.21;100.00;112049.66;4987766;28;20631;-77
2022/01/15 06:07:13;;;;;;;31.55;21.00;;;3.90;72.20;;;-142.21;100.00;112049.66;4992611;28;20207;-74
2022/01/15 06:09:40;;;;;;;29.58;19.95;;;3.90;72.20;;;-142.21;100.00;112049.66;4992991;28;20573;-76
2022/01/15 06:12:09;;;;;;;29.63;19.90;;;3.90;72.20;;;-142.21;100.00;112049.66;4992917;28;20251;-75
2022/01/15 06:14:38;;;;;;;32.67;20.83;;;3.90;72.50;;;-142.21;100.00;112049.66;4992148;28;20204;-75
2022/01/15 06:17:08;;;;;;;30.55;20.27;;;4.00;72.30;;;-142.21;100.00;112049.66;4992725;28;20760;-75
2022/01/15 06:19:35;;;;;;;28.52;20.10;;;3.90;72.30;;;-142.21;100.00;112049.66;4990930;28;20208;-77
2022/01/15 06:22:03;;;;;;;29.85;20.52;;;3.90;72.60;;;-142.21;100.00;112049.66;4992145;28;20211;-77
2022/01/15 06:24:31;;;;;;;29.58;20.88;;;3.90;72.70;;;-142.21;100.00;112049.66;4992461;28;20215;-78
2022/01/15 06:26:58;;;;;;;28.48;19.92;;;3.90;72.60;;;-142.21;100.00;112049.66;4993753;28;20735;-76
2022/01/15 06:29:25;;;;;;;30.05;19.67;;;4.10;72.90;;;-142.21;100.00;112049.66;4996086;28;20214;-76
2022/01/15 06:31:54;;;;;;;28.95;20.05;;;4.00;72.70;;;-142.21;100.00;112049.66;4996835;28;20282;-77
2022/01/15 06:34:22;;;;;;;26.55;19.38;;;4.10;72.60;;;-142.21;100.00;112049.66;4996177;28;20704;-76
2022/01/15 06:36:49;;;;;;;28.35;20.27;;;4.20;72.40;;;-142.21;100.00;112049.66;4996299;28;20755;-78
2022/01/15 06:39:17;;;;;;;28.65;19.50;;;4.20;72.20;;;-142.21;100.00;112049.66;4996144;28;20278;-75
2022/01/15 06:41:44;;;;;;;27.58;19.58;;;4.20;72.00;;;-142.21;100.00;112049.66;4992174;28;20306;-76
2022/01/15 06:44:11;;;;;;;25.73;18.98;;;4.30;72.00;;;-142.21;100.00;112049.66;4993135;28;20224;-76
2022/01/15 06:46:38;;;;;;;26.20;19.13;;;4.30;71.90;;;-142.21;100.00;112049.66;4995889;28;20303;-75
2022/01/15 06:49:05;;;;;;;28.33;19.65;;;4.30;71.70;;;-142.21;100.00;112049.66;4993920;28;20283;-77
2022/01/15 06:51:34;;;;;;;29.80;19.67;;;4.40;71.80;;;-142.21;100.00;112049.66;4992671;28;20294;-76
2022/01/15 06:54:01;;;;;;;23.88;17.42;;;4.30;71.70;;;-142.21;100.00;112049.66;4995370;28;20306;-76
2022/01/15 06:56:28;;;;;;;28.90;19.60;;;4.40;71.70;;;-142.21;100.00;112049.66;4995691;28;20292;-75
2022/01/15 06:58:55;;;;;;;27.63;19.75;;;4.40;71.70;;;-142.21;100.00;112049.66;4991130;28;20287;-76
2022/01/15 07:01:24;;;;;;;28.27;19.83;;;4.50;71.70;;;-142.21;100.00;112049.66;4976374;28;20207;-77
2022/01/15 07:03:51;;;;;;;28.33;18.80;;;4.40;71.90;;;-142.21;100.00;112049.66;4988608;28;20210;-77
2022/01/15 07:06:19;;;;;;;28.25;19.35;;;4.30;72.00;;;-142.21;100.00;112049.66;4996172;28;20291;-76
2022/01/15 07:08:47;;;;;;;29.92;20.58;;;4.30;72.40;;;-142.21;100.00;112049.66;4992930;28;20302;-75
2022/01/15 07:11:14;;;;;;;26.63;18.45;;;4.30;73.30;;;-142.21;100.00;112049.66;4985597;28;20287;-76
2022/01/15 07:13:42;;;;;;;29.90;19.73;;;4.40;72.30;;;-142.21;100.00;112049.66;4995646;28;20708;-76
2022/01/15 07:16:10;;;;;;;26.60;19.58;;;4.50;72.30;;;-142.21;100.00;112049.66;4994638;28;20690;-78
2022/01/15 07:18:37;;;;;;;26.17;19.80;;;4.50;72.30;;;-142.21;100.00;112049.66;4995634;28;20242;-75
2022/01/15 07:21:04;;;;;;;26.67;18.77;;;4.50;72.90;;;-142.21;100.00;112049.66;4995303;28;20240;-74
2022/01/15 07:23:32;;;;;;;26.77;18.85;;;4.50;72.00;;;-142.21;100.00;112049.66;4995498;28;20226;-74
2022/01/15 07:26:00;;;;;;;27.60;19.40;;;4.50;72.20;;;-142.21;100.00;112049.66;4994978;28;20234;-77
2022/01/15 07:28:30;;;;;;;27.02;18.35;;;4.50;72.20;;;-142.21;100.00;112049.66;4995351;28;20301;-77
2022/01/15 07:30:57;;;;;;;24.55;17.90;;;4.60;72.20;;;-142.21;100.00;112049.66;4994784;28;20225;-76
2022/01/15 07:33:24;;;;;;;25.33;18.15;;;4.70;72.30;;;-142.21;100.00;112049.66;4995527;28;20234;-76
2022/01/15 07:35:52;;;;;;;29.33;20.05;;;4.60;72.50;;;-142.21;100.00;112049.66;4994852;28;20226;-77
2022/01/15 07:38:21;;;;;;;25.80;18.50;;;4.50;72.20;;;-142.21;100.00;112049.66;4978365;28;20220;-77
2022/01/15 07:40:48;;;;;;;24.80;18.35;;;4.50;72.80;;;-142.21;100.00;112049.66;4994238;28;20223;-75
2022/01/15 07:43:17;;;;;;;23.58;17.63;;;4.50;73.30;;;-142.21;100.00;112049.66;4987936;28;20252;-77
2022/01/15 07:45:44;;;;;;;26.80;18.83;;;4.50;72.70;;;-142.21;100.00;112049.66;4978641;28;20263;-75
2022/01/15 07:48:13;;;;;;;24.20;18.15;;;4.50;72.60;;;-142.21;100.00;112049.66;4994229;28;20282;-75
2022/01/15 07:50:40;;;;;;;24.98;18.42;;;4.50;72.80;;;-142.21;100.00;112049.66;4995215;28;20220;-76
2022/01/15 07:53:07;;;;;;;26.55;18.05;;;4.50;72.80;;;-142.21;100.00;112049.66;4995821;28;20307;-76
2022/01/15 07:55:34;;;;;;;22.30;16.55;;;4.50;72.80;;;-142.21;100.00;112049.66;4994274;28;20311;-76
2022/01/15 07:58:03;;;;;;;25.83;17.98;;;4.50;72.70;;;-142.21;100.00;112049.66;4995405;28;20310;-76
2022/01/15 08:00:32;;;;;;;24.70;17.20;;;4.60;73.20;;;-142.21;100.00;112049.66;4993844;28;20755;-76
2022/01/15 08:02:59;;;;;;;25.33;18.23;;;4.70;72.30;;;-142.21;100.00;112049.66;4978602;28;20654;-77
2022/01/15 08:05:26;;;;;;;25.45;18.35;;;4.70;72.20;;;-142.21;100.00;112049.66;4994293;28;20295;-76
2022/01/15 08:07:54;;;;;;;21.85;16.60;;;4.70;72.10;;;-142.21;100.00;112049.66;4995720;28;20214;-77
2022/01/15 08:10:21;;;;;;;23.23;17.38;;;4.80;72.20;;;-142.21;100.00;112049.66;4994348;28;20267;-76
2022/01/15 08:12:50;;;;;;;25.25;18.02;;;4.90;72.00;;;-142.21;100.00;112049.66;4989520;28;20287;-75
2022/01/15 08:15:21;;;;;;;24.40;18.05;;;4.90;72.10;;;-142.21;100.00;112049.66;4995007;28;20258;-77
2022/01/15 08:17:50;;;;;;;23.70;17.63;;;4.80;71.80;;;-142.21;100.00;112049.66;4995126;28;20275;-76
2022/01/15 08:20:17;;;;;;;25.55;18.08;;;4.80;72.20;;;-142.21;100.00;112049.66;4994551;28;20234;-75
2022/01/15 08:22:45;;;;;;;25.48;17.77;;;4.70;72.00;;;-142.21;100.00;112049.66;4994200;28;20307;-76
2022/01/15 08:25:16;;;;;;;26.55;18.67;;;4.70;72.60;;;-142.21;100.00;112049.66;4994221;28;20208;-75
2022/01/15 08:27:43;;;;;;;27.67;19.15;;;4.70;72.70;;;-142.21;100.00;112049.66;4993549;28;20246;-75
2022/01/15 08:30:11;;;;;;;26.67;18.52;;;4.60;72.70;;;-142.21;100.00;112049.66;4994353;28;20299;-78
2022/01/15 08:32:38;;;;;;;27.60;19.23;;;4.70;72.90;;;-142.21;100.00;112049.66;4993974;28;20527;-77
2022/01/15 08:35:08;;;;;;;29.27;19.38;;;4.70;72.70;;;-142.21;100.00;112049.66;4994814;28;20203;-78
2022/01/15 08:37:38;;;;;;;28.48;18.55;;;4.60;73.80;;;-142.21;100.00;112049.66;4993820;28;20299;-75
2022/01/15 08:40:07;;;;;;;26.98;18.63;;;4.70;73.40;;;-142.21;100.00;112049.66;4994379;28;20234;-77
2022/01/15 08:42:35;;;;;;;35.60;21.38;;;4.60;73.10;;;-142.21;100.00;112049.66;4993490;28;20315;-74
2022/01/15 08:45:04;;;;;;;31.65;20.65;;;4.60;73.50;;;-142.21;100.00;112049.66;4992148;28;20288;-75
2022/01/15 08:47:32;;;;;;;28.65;19.55;;;4.50;74.50;;;-142.21;100.00;112049.66;4993953;28;20232;-77
2022/01/15 08:50:00;;;;;;;32.25;20.40;;;4.50;74.00;;;-142.21;100.00;112049.66;4993446;28;20303;-78
2022/01/15 08:52:29;;;;;;;31.20;19.83;;;4.30;74.30;;;-142.21;100.00;112049.66;4994359;28;20204;-77
2022/01/15 08:54:57;;;;;;;30.00;21.05;;;4.40;74.80;;;-142.21;100.00;112049.66;4993724;28;20533;-75
2022/01/15 08:57:24;;;;;;;27.25;19.15;;;4.30;75.00;;;-142.21;100.00;112049.66;4993522;28;20568;-76
2022/01/15 08:59:52;;;;;;;34.20;22.17;;;4.40;75.10;;;-142.21;100.00;112049.66;4993259;28;20584;-76
2022/01/15 09:02:20;;;;;;;34.72;21.20;;;4.40;74.60;;;-142.21;100.00;112049.66;4987043;28;20231;-75
2022/01/15 09:04:47;;;;;;;32.38;20.92;;;4.50;74.80;;;-142.21;100.00;112049.66;4990790;28;20294;-75
2022/01/15 09:07:15;;;;;;;28.70;20.98;;;4.60;74.90;;;-142.21;100.00;112049.66;4989013;28;20634;-75
2022/01/15 09:09:44;;;;;;;34.10;21.77;;;4.60;74.60;;;-142.21;100.00;112049.66;4979899;28;20222;-75
2022/01/15 09:12:12;;;;;;;33.83;21.10;;;4.60;74.60;;;-142.21;100.00;112049.66;4987402;28;20227;-76
2022/01/15 09:14:39;;;;;;;31.70;21.13;;;4.60;74.70;;;-142.21;100.00;112049.66;4985277;28;20215;-77
2022/01/15 09:17:07;;;;;;;31.05;21.25;;;4.80;74.80;;;-142.21;100.00;112049.66;4984329;28;20650;-80
2022/01/15 09:19:35;;;;;;;29.50;19.42;;;4.90;74.40;;;-142.21;100.00;112049.66;4993138;28;20637;-79
2022/01/15 09:22:06;;;;;;;29.35;18.42;;;5.00;74.10;;;-142.21;100.00;112049.66;4992929;28;20708;-79
2022/01/15 09:24:39;;;;;;;30.42;20.38;;;5.10;74.00;;;-142.21;100.00;112049.66;4992895;28;20314;-79
2022/01/15 09:30:16;;;;;;;33.15;22.17;;;5.30;73.80;;;-142.21;100.00;112049.66;4975767;28;20238;-78
2022/01/15 09:32:47;;;;;;;32.67;21.15;;;5.30;73.50;;;-142.21;100.00;112049.66;4974008;28;20185;-77
2022/01/15 09:35:18;;;;;;;29.92;19.02;;;5.30;73.50;;;-142.21;100.00;112049.66;4984143;28;20254;-79
2022/01/15 09:37:46;;;;;;;33.05;20.92;;;5.30;73.60;;;-142.21;100.00;112049.66;4993351;28;20215;-74
2022/01/15 09:40:15;;;;;;;31.95;20.58;;;5.20;73.40;;;-142.21;100.00;112049.66;4993063;28;20260;-76
2022/01/15 09:42:44;;;;;;;31.40;20.80;;;5.20;73.60;;;-142.21;100.00;112049.66;4990012;28;20319;-76
2022/01/15 09:45:20;;;;;;;28.50;20.05;;;5.30;73.50;;;-142.21;100.00;112049.66;4985786;28;20219;-76
2022/01/15 09:47:54;;;;;;;30.48;20.95;;;5.40;73.70;;;-142.21;100.00;112049.66;4992555;28;20314;-75
2022/01/15 09:50:21;;;;;;;31.77;19.65;;;5.40;73.40;;;-142.21;100.00;112049.66;4980339;28;20721;-78
2022/01/15 09:52:51;;;;;;;26.85;19.38;;;5.30;73.30;;;-142.21;100.00;112049.66;4981742;28;22077;-75
2022/01/15 09:55:20;;;;;;;26.48;19.15;;;5.40;73.60;;;-142.21;100.00;112049.66;5005384;23;20231;-75
2022/01/15 09:57:50;;;;;;;25.73;18.85;;;5.40;73.30;;;-142.21;100.00;112049.66;4975131;28;20648;-75
2022/01/15 10:00:20;;;;;;;28.55;19.13;;;5.40;73.30;;;-142.21;100.00;112049.66;4991747;28;20282;-75
2022/01/15 10:02:50;;;;;;;26.27;19.65;;;5.50;73.40;;;-142.21;100.00;112049.66;4992573;28;20310;-79
2022/01/15 10:05:19;;;;;;;29.10;19.95;;;5.40;73.50;;;-142.21;100.00;112049.66;4993018;28;20561;-78
2022/01/15 10:08:08;;;;;;;28.48;20.00;;;5.40;73.90;;;-142.21;100.00;112049.66;4986610;28;20282;-77
2022/01/15 10:10:37;;;;;;;29.88;20.42;;;5.50;73.90;;;-142.21;100.00;112049.66;4992221;28;20279;-79